sensor_id;sensor_type;location;lat;lon;timestamp;pressure;altitude;pressure_sealevel;temperature;humidity
23281;BME280;11809;56.390;-3.266;2022-08-19T00:02:02;100168.91;;;19.55;61.58
23281;BME280;11809;56.390;-3.266;2022-08-19T00:04:32;100176.66;;;19.58;61.63
23281;BME280;11809;56.390;-3.266;2022-08-19T00:07:03;100173.25;;;19.56;61.64
23281;BME280;11809;56.390;-3.266;2022-08-19T00:09:30;100176.91;;;19.55;61.55
23281;BME280;11809;56.390;-3.266;2022-08-19T00:11:58;100170.88;;;19.53;61.60
23281;BME280;11809;56.390;-3.266;2022-08-19T00:14:26;100173.53;;;19.53;61.53
23281;BME280;11809;56.390;-3.266;2022-08-19T00:16:54;100176.19;;;19.53;61.64
23281;BME280;11809;56.390;-3.266;2022-08-19T00:19:23;100170.13;;;19.51;61.54
23281;BME280;11809;56.390;-3.266;2022-08-19T00:21:51;100175.47;;;19.51;61.60
23281;BME280;11809;56.390;-3.266;2022-08-19T00:24:19;100168.47;;;19.50;61.47
23281;BME280;11809;56.390;-3.266;2022-08-19T00:26:46;100162.28;;;19.50;61.30
23281;BME280;11809;56.390;-3.266;2022-08-19T00:29:17;100169.41;;;19.49;61.60
23281;BME280;11809;56.390;-3.266;2022-08-19T00:31:45;100167.72;;;19.48;61.22
23281;BME280;11809;56.390;-3.266;2022-08-19T00:34:14;100174.03;;;19.47;61.47
23281;BME280;11809;56.390;-3.266;2022-08-19T00:36:41;100183.00;;;19.46;61.27
23281;BME280;11809;56.390;-3.266;2022-08-19T00:39:10;100170.66;;;19.45;61.27
23281;BME280;11809;56.390;-3.266;2022-08-19T00:41:38;100173.59;;;19.42;61.51
23281;BME280;11809;56.390;-3.266;2022-08-19T00:44:23;100166.69;;;19.40;61.18
23281;BME280;11809;56.390;-3.266;2022-08-19T00:46:54;100176.50;;;19.39;61.52
23281;BME280;11809;56.390;-3.266;2022-08-19T00:49:37;100181.84;;;19.39;61.52
23281;BME280;11809;56.390;-3.266;2022-08-19T00:52:11;100184.63;;;19.38;61.39
23281;BME280;11809;56.390;-3.266;2022-08-19T00:54:41;100173.09;;;19.37;61.53
23281;BME280;11809;56.390;-3.266;2022-08-19T00:57:12;100170.53;;;19.35;61.32
23281;BME280;11809;56.390;-3.266;2022-08-19T00:59:44;100182.06;;;19.36;61.51
23281;BME280;11809;56.390;-3.266;2022-08-19T01:02:29;100175.03;;;19.35;61.78
23281;BME280;11809;56.390;-3.266;2022-08-19T01:04:57;100178.53;;;19.35;61.43
23281;BME280;11809;56.390;-3.266;2022-08-19T01:07:24;100187.63;;;19.33;61.56
23281;BME280;11809;56.390;-3.266;2022-08-19T01:09:51;100187.63;;;19.33;61.34
23281;BME280;11809;56.390;-3.266;2022-08-19T01:12:18;100193.97;;;19.32;61.62
23281;BME280;11809;56.390;-3.266;2022-08-19T01:14:46;100194.06;;;19.30;61.54
23281;BME280;11809;56.390;-3.266;2022-08-19T01:17:14;100189.69;;;19.29;61.61
23281;BME280;11809;56.390;-3.266;2022-08-19T01:19:43;100187.88;;;19.30;61.51
23281;BME280;11809;56.390;-3.266;2022-08-19T01:22:32;100185.47;;;19.27;61.72
23281;BME280;11809;56.390;-3.266;2022-08-19T01:25:02;100194.31;;;19.27;61.85
23281;BME280;11809;56.390;-3.266;2022-08-19T01:27:40;100193.47;;;19.27;61.67
23281;BME280;11809;56.390;-3.266;2022-08-19T01:30:13;100196.28;;;19.25;61.83
23281;BME280;11809;56.390;-3.266;2022-08-19T01:32:40;100194.56;;;19.24;61.79
23281;BME280;11809;56.390;-3.266;2022-08-19T01:35:08;100193.75;;;19.24;61.99
23281;BME280;11809;56.390;-3.266;2022-08-19T01:37:49;100194.72;;;19.23;61.73
23281;BME280;11809;56.390;-3.266;2022-08-19T01:40:16;100197.47;;;19.21;61.67
23281;BME280;11809;56.390;-3.266;2022-08-19T01:42:43;100189.63;;;19.20;61.72
23281;BME280;11809;56.390;-3.266;2022-08-19T01:45:10;100202.09;;;19.19;61.77
23281;BME280;11809;56.390;-3.266;2022-08-19T01:47:38;100206.72;;;19.17;61.63
23281;BME280;11809;56.390;-3.266;2022-08-19T01:50:06;100202.34;;;19.16;61.45
23281;BME280;11809;56.390;-3.266;2022-08-19T01:52:36;100209.53;;;19.16;61.57
23281;BME280;11809;56.390;-3.266;2022-08-19T01:55:05;100205.16;;;19.15;61.67
23281;BME280;11809;56.390;-3.266;2022-08-19T01:57:33;100192.69;;;19.15;61.68
23281;BME280;11809;56.390;-3.266;2022-08-19T02:00:01;100194.50;;;19.15;61.92
23281;BME280;11809;56.390;-3.266;2022-08-19T02:02:31;100197.16;;;19.15;61.46
23281;BME280;11809;56.390;-3.266;2022-08-19T02:04:59;100204.44;;;19.13;61.63
23281;BME280;11809;56.390;-3.266;2022-08-19T02:07:25;100198.38;;;19.11;62.04
23281;BME280;11809;56.390;-3.266;2022-08-19T02:09:54;100196.69;;;19.10;61.87
23281;BME280;11809;56.390;-3.266;2022-08-19T02:12:22;100194.03;;;19.10;61.74
23281;BME280;11809;56.390;-3.266;2022-08-19T02:14:49;100214.34;;;19.11;61.82
23281;BME280;11809;56.390;-3.266;2022-08-19T02:17:16;100211.97;;;19.08;61.87
23281;BME280;11809;56.390;-3.266;2022-08-19T02:19:43;100213.78;;;19.07;61.75
23281;BME280;11809;56.390;-3.266;2022-08-19T02:22:10;100219.09;;;19.07;61.66
23281;BME280;11809;56.390;-3.266;2022-08-19T02:24:37;100224.44;;;19.07;61.80
23281;BME280;11809;56.390;-3.266;2022-08-19T02:27:05;100218.41;;;19.05;61.89
23281;BME280;11809;56.390;-3.266;2022-08-19T02:29:32;100219.22;;;19.06;61.81
23281;BME280;11809;56.390;-3.266;2022-08-19T02:31:59;100215.84;;;19.04;61.88
23281;BME280;11809;56.390;-3.266;2022-08-19T02:34:26;100218.50;;;19.04;61.84
23281;BME280;11809;56.390;-3.266;2022-08-19T02:36:53;100216.84;;;19.03;61.79
23281;BME280;11809;56.390;-3.266;2022-08-19T02:39:21;100223.13;;;19.02;61.94
23281;BME280;11809;56.390;-3.266;2022-08-19T02:41:49;100216.94;;;19.01;61.82
23281;BME280;11809;56.390;-3.266;2022-08-19T02:44:17;100224.06;;;19.01;61.86
23281;BME280;11809;56.390;-3.266;2022-08-19T02:46:57;100221.41;;;19.01;61.92
23281;BME280;11809;56.390;-3.266;2022-08-19T02:49:24;100227.72;;;19.00;61.80
23281;BME280;11809;56.390;-3.266;2022-08-19T02:51:51;100227.72;;;19.00;61.73
23281;BME280;11809;56.390;-3.266;2022-08-19T02:54:18;100227.84;;;18.98;61.75
23281;BME280;11809;56.390;-3.266;2022-08-19T02:56:45;100229.66;;;18.98;61.50
23281;BME280;11809;56.390;-3.266;2022-08-19T02:59:13;100230.63;;;18.97;61.77
23281;BME280;11809;56.390;-3.266;2022-08-19T03:01:41;100230.88;;;18.94;61.91
23281;BME280;11809;56.390;-3.266;2022-08-19T03:04:12;100238.03;;;18.93;61.89
23281;BME280;11809;56.390;-3.266;2022-08-19T03:06:44;100238.16;;;18.92;62.17
23281;BME280;11809;56.390;-3.266;2022-08-19T03:09:13;100240.81;;;18.92;61.93
23281;BME280;11809;56.390;-3.266;2022-08-19T03:11:40;100247.09;;;18.91;62.13
23281;BME280;11809;56.390;-3.266;2022-08-19T03:14:08;100242.75;;;18.90;62.05
23281;BME280;11809;56.390;-3.266;2022-08-19T03:16:48;100254.38;;;18.89;62.00
23281;BME280;11809;56.390;-3.266;2022-08-19T03:19:18;100252.66;;;18.88;62.23
23281;BME280;11809;56.390;-3.266;2022-08-19T03:21:45;100258.00;;;18.88;62.17
23281;BME280;11809;56.390;-3.266;2022-08-19T03:24:13;100253.66;;;18.87;62.23
23281;BME280;11809;56.390;-3.266;2022-08-19T03:26:44;100254.47;;;18.87;62.18
23281;BME280;11809;56.390;-3.266;2022-08-19T03:29:12;100257.16;;;18.87;62.16
23281;BME280;11809;56.390;-3.266;2022-08-19T03:31:41;100257.28;;;18.86;62.34
23281;BME280;11809;56.390;-3.266;2022-08-19T03:34:27;100254.63;;;18.86;62.16
23281;BME280;11809;56.390;-3.266;2022-08-19T03:36:57;100260.91;;;18.85;62.14
23281;BME280;11809;56.390;-3.266;2022-08-19T03:39:25;100265.41;;;18.84;62.02
23281;BME280;11809;56.390;-3.266;2022-08-19T03:41:53;100264.56;;;18.84;62.38
23281;BME280;11809;56.390;-3.266;2022-08-19T03:44:43;100268.88;;;18.85;62.28
23281;BME280;11809;56.390;-3.266;2022-08-19T03:47:11;100255.72;;;18.83;62.10
23281;BME280;11809;56.390;-3.266;2022-08-19T03:49:43;100261.91;;;18.84;62.06
23281;BME280;11809;56.390;-3.266;2022-08-19T03:52:10;100263.69;;;18.83;61.95
23281;BME280;11809;56.390;-3.266;2022-08-19T03:54:38;100258.47;;;18.82;61.92
23281;BME280;11809;56.390;-3.266;2022-08-19T03:57:05;100259.47;;;18.81;61.97
23281;BME280;11809;56.390;-3.266;2022-08-19T03:59:34;100259.47;;;18.81;62.04
23281;BME280;11809;56.390;-3.266;2022-08-19T04:02:06;100255.09;;;18.80;62.17
23281;BME280;11809;56.390;-3.266;2022-08-19T04:04:37;100251.50;;;18.81;61.98
23281;BME280;11809;56.390;-3.266;2022-08-19T04:07:05;100242.78;;;18.79;61.86
23281;BME280;11809;56.390;-3.266;2022-08-19T04:09:34;100259.56;;;18.79;61.90
23281;BME280;11809;56.390;-3.266;2022-08-19T04:12:04;100261.66;;;18.75;61.88
23281;BME280;11809;56.390;-3.266;2022-08-19T04:14:32;100268.91;;;18.73;61.78
23281;BME280;11809;56.390;-3.266;2022-08-19T04:17:01;100267.22;;;18.72;61.89
23281;BME280;11809;56.390;-3.266;2022-08-19T04:19:32;100275.31;;;18.71;61.92
23281;BME280;11809;56.390;-3.266;2022-08-19T04:21:59;100279.81;;;18.70;62.06
23281;BME280;11809;56.390;-3.266;2022-08-19T04:24:27;100265.66;;;18.70;62.00
23281;BME280;11809;56.390;-3.266;2022-08-19T04:26:54;100271.09;;;18.68;61.92
23281;BME280;11809;56.390;-3.266;2022-08-19T04:29:23;100273.03;;;18.66;61.88
23281;BME280;11809;56.390;-3.266;2022-08-19T04:31:53;100266.84;;;18.66;62.00
23281;BME280;11809;56.390;-3.266;2022-08-19T04:34:22;100262.63;;;18.63;62.31
23281;BME280;11809;56.390;-3.266;2022-08-19T04:36:51;100272.31;;;18.64;61.68
23281;BME280;11809;56.390;-3.266;2022-08-19T04:39:22;100267.09;;;18.63;61.55
23281;BME280;11809;56.390;-3.266;2022-08-19T04:41:50;100259.00;;;18.64;61.73
23281;BME280;11809;56.390;-3.266;2022-08-19T04:44:35;100268.56;;;18.67;62.10
23281;BME280;11809;56.390;-3.266;2022-08-19T04:47:11;100270.50;;;18.65;62.18
23281;BME280;11809;56.390;-3.266;2022-08-19T04:49:38;100281.00;;;18.66;62.19
23281;BME280;11809;56.390;-3.266;2022-08-19T04:52:05;100281.00;;;18.66;62.15
23281;BME280;11809;56.390;-3.266;2022-08-19T04:54:32;100282.72;;;18.67;62.01
23281;BME280;11809;56.390;-3.266;2022-08-19T04:57:07;100288.91;;;18.68;62.22
23281;BME280;11809;56.390;-3.266;2022-08-19T04:59:38;100286.22;;;18.68;62.72
23281;BME280;11809;56.390;-3.266;2022-08-19T05:02:08;100283.69;;;18.66;62.64
23281;BME280;11809;56.390;-3.266;2022-08-19T05:04:36;100285.25;;;18.69;62.66
23281;BME280;11809;56.390;-3.266;2022-08-19T05:07:07;100290.72;;;18.67;62.64
23281;BME280;11809;56.390;-3.266;2022-08-19T05:09:35;100291.28;;;18.71;63.08
23281;BME280;11809;56.390;-3.266;2022-08-19T05:12:22;100296.63;;;18.71;63.66
23281;BME280;11809;56.390;-3.266;2022-08-19T05:14:56;100304.97;;;18.66;62.54
23281;BME280;11809;56.390;-3.266;2022-08-19T05:17:27;100299.16;;;18.61;62.86
23281;BME280;11809;56.390;-3.266;2022-08-19T05:20:00;100293.47;;;18.66;62.94
23281;BME280;11809;56.390;-3.266;2022-08-19T05:22:47;100284.88;;;18.73;63.26
23281;BME280;11809;56.390;-3.266;2022-08-19T05:25:17;100292.50;;;18.78;62.99
23281;BME280;11809;56.390;-3.266;2022-08-19T05:27:46;100296.59;;;18.82;63.18
23281;BME280;11809;56.390;-3.266;2022-08-19T05:30:14;100305.22;;;18.86;63.37
23281;BME280;11809;56.390;-3.266;2022-08-19T05:32:42;100302.56;;;18.86;62.97
23281;BME280;11809;56.390;-3.266;2022-08-19T05:35:10;100311.16;;;18.89;63.21
23281;BME280;11809;56.390;-3.266;2022-08-19T05:37:38;100303.88;;;18.91;62.87
23281;BME280;11809;56.390;-3.266;2022-08-19T05:40:08;100319.00;;;18.91;63.06
23281;BME280;11809;56.390;-3.266;2022-08-19T05:42:35;100327.72;;;18.93;62.84
23281;BME280;11809;56.390;-3.266;2022-08-19T05:45:03;100328.47;;;18.95;62.49
23281;BME280;11809;56.390;-3.266;2022-08-19T05:47:31;100332.78;;;18.96;62.53
23281;BME280;11809;56.390;-3.266;2022-08-19T05:49:59;100339.81;;;18.97;62.35
23281;BME280;11809;56.390;-3.266;2022-08-19T05:52:30;100351.06;;;19.00;62.43
23281;BME280;11809;56.390;-3.266;2022-08-19T05:54:58;100364.28;;;19.02;62.18
23281;BME280;11809;56.390;-3.266;2022-08-19T05:57:25;100350.81;;;19.03;62.36
23281;BME280;11809;56.390;-3.266;2022-08-19T05:59:52;100357.00;;;19.04;62.33
23281;BME280;11809;56.390;-3.266;2022-08-19T06:02:28;100344.66;;;19.03;62.52
23281;BME280;11809;56.390;-3.266;2022-08-19T06:04:57;100340.16;;;19.03;62.53
23281;BME280;11809;56.390;-3.266;2022-08-19T06:07:24;100344.66;;;19.03;62.23
23281;BME280;11809;56.390;-3.266;2022-08-19T06:09:52;100350.25;;;19.00;62.02
23281;BME280;11809;56.390;-3.266;2022-08-19T06:12:30;100352.16;;;18.98;62.70
23281;BME280;11809;56.390;-3.266;2022-08-19T06:15:02;100348.06;;;18.83;61.38
23281;BME280;11809;56.390;-3.266;2022-08-19T06:17:30;100347.31;;;18.69;60.74
23281;BME280;11809;56.390;-3.266;2022-08-19T06:19:58;100351.91;;;18.56;60.47
23281;BME280;11809;56.390;-3.266;2022-08-19T06:22:26;100358.19;;;18.55;60.77
23281;BME280;11809;56.390;-3.266;2022-08-19T06:24:54;100352.41;;;18.61;61.55
23281;BME280;11809;56.390;-3.266;2022-08-19T06:27:21;100359.19;;;18.65;61.65
23281;BME280;11809;56.390;-3.266;2022-08-19T06:29:49;100363.28;;;18.69;61.84
23281;BME280;11809;56.390;-3.266;2022-08-19T06:32:17;100361.34;;;18.71;62.08
23281;BME280;11809;56.390;-3.266;2022-08-19T06:34:46;100374.44;;;18.74;61.83
23281;BME280;11809;56.390;-3.266;2022-08-19T06:37:13;100380.84;;;18.72;62.29
23281;BME280;11809;56.390;-3.266;2022-08-19T06:39:42;100381.56;;;18.74;62.50
23281;BME280;11809;56.390;-3.266;2022-08-19T06:42:11;100377.09;;;18.74;62.21
23281;BME280;11809;56.390;-3.266;2022-08-19T06:44:41;100373.56;;;18.74;62.14
23281;BME280;11809;56.390;-3.266;2022-08-19T06:47:17;100381.56;;;18.74;62.33
23281;BME280;11809;56.390;-3.266;2022-08-19T06:49:58;100386.03;;;18.73;62.68
23281;BME280;11809;56.390;-3.266;2022-08-19T06:52:33;100392.44;;;18.71;62.79
23281;BME280;11809;56.390;-3.266;2022-08-19T06:55:03;100395.00;;;18.72;62.88
23281;BME280;11809;56.390;-3.266;2022-08-19T06:57:32;100399.84;;;18.67;62.02
23281;BME280;11809;56.390;-3.266;2022-08-19T07:00:00;100401.16;;;18.62;61.88
23281;BME280;11809;56.390;-3.266;2022-08-19T07:02:27;100385.19;;;18.62;62.55
23281;BME280;11809;56.390;-3.266;2022-08-19T07:04:55;100397.66;;;18.61;62.85
23281;BME280;11809;56.390;-3.266;2022-08-19T07:07:25;100402.72;;;18.64;62.90
23281;BME280;11809;56.390;-3.266;2022-08-19T07:09:52;100392.94;;;18.65;62.89
23281;BME280;11809;56.390;-3.266;2022-08-19T07:12:31;100397.19;;;18.67;63.15
23281;BME280;11809;56.390;-3.266;2022-08-19T07:15:04;100396.31;;;18.67;63.26
23281;BME280;11809;56.390;-3.266;2022-08-19T07:17:31;100403.22;;;18.69;63.68
23281;BME280;11809;56.390;-3.266;2022-08-19T07:20:01;100404.19;;;18.68;63.09
23281;BME280;11809;56.390;-3.266;2022-08-19T07:22:39;100407.81;;;18.56;62.01
23281;BME280;11809;56.390;-3.266;2022-08-19T07:25:09;100401.84;;;18.53;62.18
23281;BME280;11809;56.390;-3.266;2022-08-19T07:27:36;100408.66;;;18.57;62.68
23281;BME280;11809;56.390;-3.266;2022-08-19T07:30:06;100413.84;;;18.58;62.55
23281;BME280;11809;56.390;-3.266;2022-08-19T07:32:38;100407.09;;;18.54;62.14
23281;BME280;11809;56.390;-3.266;2022-08-19T07:35:06;100407.00;;;18.43;61.77
23281;BME280;11809;56.390;-3.266;2022-08-19T07:37:34;100403.72;;;18.40;61.95
23281;BME280;11809;56.390;-3.266;2022-08-19T07:40:06;100413.03;;;18.34;61.70
23281;BME280;11809;56.390;-3.266;2022-08-19T07:42:38;100414.59;;;18.37;62.10
23281;BME280;11809;56.390;-3.266;2022-08-19T07:45:08;100414.88;;;18.45;62.09
23281;BME280;11809;56.390;-3.266;2022-08-19T07:47:36;100414.56;;;18.49;62.00
23281;BME280;11809;56.390;-3.266;2022-08-19T07:50:18;100418.81;;;18.52;62.62
23281;BME280;11809;56.390;-3.266;2022-08-19T07:52:48;100420.38;;;18.54;62.70
23281;BME280;11809;56.390;-3.266;2022-08-19T07:55:26;100430.72;;;18.46;61.89
23281;BME280;11809;56.390;-3.266;2022-08-19T07:58:12;100421.56;;;18.50;62.26
23281;BME280;11809;56.390;-3.266;2022-08-19T08:00:43;100423.28;;;18.51;62.73
23281;BME280;11809;56.390;-3.266;2022-08-19T08:03:21;100426.66;;;18.53;62.21
23281;BME280;11809;56.390;-3.266;2022-08-19T08:06:13;100420.03;;;18.59;62.67
23281;BME280;11809;56.390;-3.266;2022-08-19T08:09:01;100424.03;;;18.64;63.02
23281;BME280;11809;56.390;-3.266;2022-08-19T08:11:44;100423.81;;;18.67;63.06
23281;BME280;11809;56.390;-3.266;2022-08-19T08:14:31;100420.91;;;18.70;63.00
23281;BME280;11809;56.390;-3.266;2022-08-19T08:17:01;100415.09;;;18.76;63.24
23281;BME280;11809;56.390;-3.266;2022-08-19T08:19:37;100419.44;;;18.77;62.49
23281;BME280;11809;56.390;-3.266;2022-08-19T08:22:05;100426.94;;;18.72;61.45
23281;BME280;11809;56.390;-3.266;2022-08-19T08:24:33;100423.56;;;18.70;61.47
23281;BME280;11809;56.390;-3.266;2022-08-19T08:27:06;100431.88;;;18.66;60.99
23281;BME280;11809;56.390;-3.266;2022-08-19T08:29:37;100430.53;;;18.60;61.05
23281;BME280;11809;56.390;-3.266;2022-08-19T08:32:09;100433.47;;;18.57;60.68
23281;BME280;11809;56.390;-3.266;2022-08-19T08:34:41;100425.72;;;18.54;60.60
23281;BME280;11809;56.390;-3.266;2022-08-19T08:37:13;100423.28;;;18.51;60.41
23281;BME280;11809;56.390;-3.266;2022-08-19T08:39:42;100430.72;;;18.46;59.74
23281;BME280;11809;56.390;-3.266;2022-08-19T08:45:10;100426.81;;;18.39;59.62
23281;BME280;11809;56.390;-3.266;2022-08-19T08:47:46;100433.13;;;18.38;58.78
23281;BME280;11809;56.390;-3.266;2022-08-19T08:50:38;100428.88;;;18.36;59.04
23281;BME280;11809;56.390;-3.266;2022-08-19T08:53:07;100431.53;;;18.36;58.68
23281;BME280;11809;56.390;-3.266;2022-08-19T08:55:36;100429.13;;;18.33;58.29
23281;BME280;11809;56.390;-3.266;2022-08-19T08:58:04;100435.38;;;18.32;58.38
23281;BME280;11809;56.390;-3.266;2022-08-19T09:00:37;100427.81;;;18.38;58.44
23281;BME280;11809;56.390;-3.266;2022-08-19T09:03:25;100419.09;;;18.36;58.55
23281;BME280;11809;56.390;-3.266;2022-08-19T09:06:06;100422.72;;;18.35;58.04
23281;BME280;11809;56.390;-3.266;2022-08-19T09:09:09;100422.25;;;18.41;58.29
23281;BME280;11809;56.390;-3.266;2022-08-19T09:14:41;100430.72;;;18.46;58.46
23281;BME280;11809;56.390;-3.266;2022-08-19T09:17:19;100419.13;;;18.47;58.50
23281;BME280;11809;56.390;-3.266;2022-08-19T09:19:51;100428.69;;;18.50;58.25
23281;BME280;11809;56.390;-3.266;2022-08-19T09:22:20;100437.44;;;18.52;58.21
23281;BME280;11809;56.390;-3.266;2022-08-19T09:24:53;100427.50;;;18.54;58.36
23281;BME280;11809;56.390;-3.266;2022-08-19T09:27:22;100424.25;;;18.61;58.77
23281;BME280;11809;56.390;-3.266;2022-08-19T09:30:12;100434.91;;;18.61;58.00
23281;BME280;11809;56.390;-3.266;2022-08-19T09:32:39;100419.44;;;18.66;57.92
23281;BME280;11809;56.390;-3.266;2022-08-19T09:35:09;100417.97;;;18.73;57.89
23281;BME280;11809;56.390;-3.266;2022-08-19T09:37:37;100417.50;;;18.80;58.16
23281;BME280;11809;56.390;-3.266;2022-08-19T09:40:06;100414.50;;;18.84;58.41
23281;BME280;11809;56.390;-3.266;2022-08-19T09:42:37;100411.47;;;18.89;58.41
23281;BME280;11809;56.390;-3.266;2022-08-19T09:45:18;100409.06;;;18.97;58.61
23281;BME280;11809;56.390;-3.266;2022-08-19T09:47:49;100406.88;;;19.02;58.27
23281;BME280;11809;56.390;-3.266;2022-08-19T09:50:21;100414.41;;;19.08;58.16
23281;BME280;11809;56.390;-3.266;2022-08-19T09:52:49;100419.72;;;19.08;57.64
23281;BME280;11809;56.390;-3.266;2022-08-19T09:55:23;100410.03;;;19.07;57.48
23281;BME280;11809;56.390;-3.266;2022-08-19T09:58:01;100415.22;;;19.08;57.41
23281;BME280;11809;56.390;-3.266;2022-08-19T10:00:29;100412.81;;;19.05;56.66
23281;BME280;11809;56.390;-3.266;2022-08-19T10:02:57;100403.84;;;19.06;56.97
23281;BME280;11809;56.390;-3.266;2022-08-19T10:05:26;100406.66;;;19.05;56.27
23281;BME280;11809;56.390;-3.266;2022-08-19T10:08:19;100394.19;;;19.05;56.38
23281;BME280;11809;56.390;-3.266;2022-08-19T10:10:52;100400.09;;;19.09;57.08
23281;BME280;11809;56.390;-3.266;2022-08-19T10:13:23;100404.00;;;19.16;57.73
23281;BME280;11809;56.390;-3.266;2022-08-19T10:15:55;100406.28;;;19.20;58.19
23281;BME280;11809;56.390;-3.266;2022-08-19T10:18:24;100409.41;;;19.25;58.22
23281;BME280;11809;56.390;-3.266;2022-08-19T10:21:06;100414.38;;;19.30;58.25
23281;BME280;11809;56.390;-3.266;2022-08-19T10:23:43;100402.63;;;19.32;58.65
23281;BME280;11809;56.390;-3.266;2022-08-19T10:26:17;100404.19;;;19.35;58.49
23281;BME280;11809;56.390;-3.266;2022-08-19T10:28:46;100395.97;;;19.38;58.72
23281;BME280;11809;56.390;-3.266;2022-08-19T10:31:21;100399.25;;;19.42;58.83
23281;BME280;11809;56.390;-3.266;2022-08-19T10:34:10;100381.31;;;19.44;59.29
23281;BME280;11809;56.390;-3.266;2022-08-19T10:36:54;100396.09;;;19.48;59.04
23281;BME280;11809;56.390;-3.266;2022-08-19T10:39:28;100392.34;;;19.50;59.13
23281;BME280;11809;56.390;-3.266;2022-08-19T10:42:08;100392.34;;;19.50;59.22
23281;BME280;11809;56.390;-3.266;2022-08-19T10:44:37;100404.59;;;19.53;59.27
23281;BME280;11809;56.390;-3.266;2022-08-19T10:47:05;100407.25;;;19.53;59.30
23281;BME280;11809;56.390;-3.266;2022-08-19T10:49:54;100388.44;;;19.54;59.37
23281;BME280;11809;56.390;-3.266;2022-08-19T10:52:43;100388.44;;;19.54;59.29
23281;BME280;11809;56.390;-3.266;2022-08-19T10:55:19;100385.69;;;19.56;59.69
23281;BME280;11809;56.390;-3.266;2022-08-19T10:58:14;100379.34;;;19.57;59.17
23281;BME280;11809;56.390;-3.266;2022-08-19T11:00:41;100390.88;;;19.57;59.45
23281;BME280;11809;56.390;-3.266;2022-08-19T11:03:10;100387.25;;;19.58;59.41
23281;BME280;11809;56.390;-3.266;2022-08-19T11:05:38;100382.72;;;19.59;59.28
23281;BME280;11809;56.390;-3.266;2022-08-19T11:08:07;100379.25;;;19.58;59.26
23281;BME280;11809;56.390;-3.266;2022-08-19T11:10:48;100386.25;;;19.59;59.20
23281;BME280;11809;56.390;-3.266;2022-08-19T11:13:16;100385.28;;;19.60;59.44
23281;BME280;11809;56.390;-3.266;2022-08-19T11:15:43;100376.59;;;19.58;59.23
23281;BME280;11809;56.390;-3.266;2022-08-19T11:18:12;100386.25;;;19.59;59.42
23281;BME280;11809;56.390;-3.266;2022-08-19T11:20:40;100388.22;;;19.57;59.50
23281;BME280;11809;56.390;-3.266;2022-08-19T11:23:07;100385.53;;;19.57;59.75
23281;BME280;11809;56.390;-3.266;2022-08-19T11:25:34;100386.50;;;19.56;59.20
23281;BME280;11809;56.390;-3.266;2022-08-19T11:28:02;100382.88;;;19.57;59.15
23281;BME280;11809;56.390;-3.266;2022-08-19T11:30:29;100382.88;;;19.57;59.27
23281;BME280;11809;56.390;-3.266;2022-08-19T11:32:56;100388.22;;;19.57;59.48
23281;BME280;11809;56.390;-3.266;2022-08-19T11:35:24;100382.88;;;19.57;59.51
23281;BME280;11809;56.390;-3.266;2022-08-19T11:37:51;100385.53;;;19.57;59.72
23281;BME280;11809;56.390;-3.266;2022-08-19T11:40:19;100392.56;;;19.58;59.44
23281;BME280;11809;56.390;-3.266;2022-08-19T11:42:46;100386.38;;;19.58;59.25
23281;BME280;11809;56.390;-3.266;2022-08-19T11:45:26;100389.78;;;19.60;59.66
23281;BME280;11809;56.390;-3.266;2022-08-19T11:47:55;100393.28;;;19.60;59.59
23281;BME280;11809;56.390;-3.266;2022-08-19T11:50:23;100395.97;;;19.60;59.64
23281;BME280;11809;56.390;-3.266;2022-08-19T11:52:55;100398.63;;;19.60;59.76
23281;BME280;11809;56.390;-3.266;2022-08-19T11:55:23;100398.47;;;19.62;59.51
23281;BME280;11809;56.390;-3.266;2022-08-19T11:57:50;100398.63;;;19.60;59.80
23281;BME280;11809;56.390;-3.266;2022-08-19T12:00:18;100396.91;;;19.59;59.70
23281;BME280;11809;56.390;-3.266;2022-08-19T12:02:45;100388.91;;;19.59;59.66
23281;BME280;11809;56.390;-3.266;2022-08-19T12:05:12;100400.44;;;19.60;59.73
23281;BME280;11809;56.390;-3.266;2022-08-19T12:07:40;100411.94;;;19.60;59.90
23281;BME280;11809;56.390;-3.266;2022-08-19T12:10:08;100403.00;;;19.61;59.63
23281;BME280;11809;56.390;-3.266;2022-08-19T12:12:37;100401.03;;;19.63;59.52
23281;BME280;11809;56.390;-3.266;2022-08-19T12:15:11;100401.91;;;19.64;59.47
23281;BME280;11809;56.390;-3.266;2022-08-19T12:17:38;100407.09;;;19.65;59.86
23281;BME280;11809;56.390;-3.266;2022-08-19T12:20:09;100395.47;;;19.66;59.65
23281;BME280;11809;56.390;-3.266;2022-08-19T12:22:37;100408.78;;;19.66;59.65
23281;BME280;11809;56.390;-3.266;2022-08-19T12:25:05;100406.72;;;19.70;59.77
23281;BME280;11809;56.390;-3.266;2022-08-19T12:27:32;100404.88;;;19.70;59.64
23281;BME280;11809;56.390;-3.266;2022-08-19T12:30:10;100401.25;;;19.71;59.59
23281;BME280;11809;56.390;-3.266;2022-08-19T12:32:37;100402.13;;;19.72;59.70
23281;BME280;11809;56.390;-3.266;2022-08-19T12:35:06;100406.34;;;19.74;59.61
23281;BME280;11809;56.390;-3.266;2022-08-19T12:37:36;100394.69;;;19.75;59.67
23281;BME280;11809;56.390;-3.266;2022-08-19T12:40:04;100407.78;;;19.78;59.72
23281;BME280;11809;56.390;-3.266;2022-08-19T12:42:32;100407.06;;;19.76;59.59
23281;BME280;11809;56.390;-3.266;2022-08-19T12:44:59;100413.13;;;19.78;59.53
23281;BME280;11809;56.390;-3.266;2022-08-19T12:47:26;100405.00;;;19.80;59.58
23281;BME280;11809;56.390;-3.266;2022-08-19T12:49:53;100408.63;;;19.79;59.46
23281;BME280;11809;56.390;-3.266;2022-08-19T12:52:23;100404.25;;;19.78;59.62
23281;BME280;11809;56.390;-3.266;2022-08-19T12:54:53;100415.06;;;19.76;59.75
23281;BME280;11809;56.390;-3.266;2022-08-19T12:57:25;100411.41;;;19.77;59.68
23281;BME280;11809;56.390;-3.266;2022-08-19T13:00:00;100407.06;;;19.76;55.83
23281;BME280;11809;56.390;-3.266;2022-08-19T13:02:31;100415.06;;;19.76;54.33
23281;BME280;11809;56.390;-3.266;2022-08-19T13:05:07;100418.69;;;19.75;53.68
23281;BME280;11809;56.390;-3.266;2022-08-19T13:07:36;100411.41;;;19.77;53.58